Time;durP1;ratioP1;P1;durP2;ratioP2;P2;SDS_P1;SDS_P2;PMS_P1;PMS_P2;Temp;Humidity;BMP_temperature;BMP_pressure;BME280_temperature;BME280_humidity;BME280_pressure;Samples;Min_cycle;Max_cycle;Signal;HPM_P1;HPM_P2
2022/06/13 00:00:06;;;;;;;9.08;6.10;;;;;;;18.38;66.29;99296.23;1696040;84;21085;-75
2022/06/13 00:02:34;;;;;;;6.55;5.58;;;;;;;18.34;66.52;99292.94;1730337;82;21065;-75
2022/06/13 00:05:06;;;;;;;6.83;5.37;;;;;;;18.32;66.56;99300.64;1728172;83;21061;-75
2022/06/13 00:07:34;;;;;;;6.70;5.87;;;;;;;18.30;66.55;99294.58;1728034;82;21057;-75
2022/06/13 00:10:03;;;;;;;6.12;5.37;;;;;;;18.29;66.30;99290.20;1723226;83;21582;-75
2022/06/13 00:12:30;;;;;;;8.23;5.50;;;;;;;18.29;66.12;99288.87;1727791;83;21074;-75
2022/06/13 00:14:57;;;;;;;6.50;5.80;;;;;;;18.28;66.21;99289.84;1727566;83;21101;-75
2022/06/13 00:17:26;;;;;;;7.90;5.83;;;;;;;18.25;66.38;99284.73;1728003;83;21541;-75
2022/06/13 00:19:52;;;;;;;5.80;5.28;;;;;;;18.23;66.40;99281.33;1727744;83;21066;-75
2022/06/13 00:22:19;;;;;;;9.85;5.70;;;;;;;18.23;66.42;99287.50;1728046;83;21081;-76
2022/06/13 00:24:47;;;;;;;10.80;6.90;;;;;;;18.20;66.54;99283.22;1727796;83;21160;-75
2022/06/13 00:27:15;;;;;;;6.05;5.45;;;;;;;18.16;66.69;99287.08;1727816;83;21117;-75
2022/06/13 00:29:44;;;;;;;7.80;6.00;;;;;;;18.14;66.85;99286.34;1727621;83;21116;-75
2022/06/13 00:32:10;;;;;;;10.03;5.62;;;;;;;18.13;67.00;99283.78;1728031;83;21554;-75
2022/06/13 00:34:36;;;;;;;9.85;6.12;;;;;;;18.09;67.16;99277.82;1728126;83;21081;-75
2022/06/13 00:37:03;;;;;;;12.63;5.90;;;;;;;18.07;67.67;99284.20;1727726;83;21097;-75
2022/06/13 00:39:30;;;;;;;7.08;5.50;;;;;;;18.05;67.87;99281.64;1727850;83;21614;-75
2022/06/13 00:41:57;;;;;;;6.05;5.47;;;;;;;18.03;67.80;99283.56;1727576;83;21981;-75
2022/06/13 00:44:31;;;;;;;8.60;5.75;;;;;;;18.02;67.62;99283.17;1728047;83;21097;-75
2022/06/13 00:46:57;;;;;;;8.00;5.58;;;;;;;18.00;67.55;99281.98;1727811;83;21066;-75
2022/06/13 00:49:32;;;;;;;7.70;5.80;;;;;;;17.97;67.41;99286.63;1727892;83;21050;-75
2022/06/13 00:52:19;;;;;;;10.78;6.47;;;;;;;17.92;67.40;99280.32;1727890;83;22044;-75
2022/06/13 00:54:46;;;;;;;10.30;5.50;;;;;;;17.89;67.64;99289.00;1728001;83;21114;-75
2022/06/13 00:57:20;;;;;;;9.25;6.20;;;;;;;17.85;67.98;99286.13;1727665;83;21133;-75
2022/06/13 00:59:47;;;;;;;8.98;6.00;;;;;;;17.79;67.98;99284.26;1727528;83;21002;-75
2022/06/13 01:02:15;;;;;;;12.20;5.65;;;;;;;17.74;67.97;99283.72;1727903;83;21533;-75
2022/06/13 01:04:43;;;;;;;7.15;5.60;;;;;;;17.70;68.14;99277.37;1727791;83;21117;-75
2022/06/13 01:07:10;;;;;;;8.95;6.08;;;;;;;17.65;68.16;99279.01;1728559;82;21569;-75
2022/06/13 01:12:23;;;;;;;7.78;6.25;;;;;;;17.56;68.23;99275.66;1730962;82;21002;-75
2022/06/13 01:15:23;;;;;;;7.75;5.75;;;;;;;17.54;68.82;99277.09;1730658;82;21168;-75
2022/06/13 01:18:24;;;;;;;7.45;5.78;;;;;;;17.50;68.82;99276.93;1730287;82;21675;-75
2022/06/13 01:21:24;;;;;;;8.93;6.00;;;;;;;17.44;68.86;99278.17;1729845;81;21151;-75
2022/06/13 01:24:11;;;;;;;11.05;6.17;;;;;;;17.41;68.95;99274.39;1730611;82;21053;-75
2022/06/13 01:26:52;;;;;;;7.12;5.45;;;;;;;17.36;69.35;99276.98;1730443;82;21125;-75
2022/06/13 01:29:30;;;;;;;8.45;5.40;;;;;;;17.32;69.43;99282.15;1730778;82;21041;-76
2022/06/13 01:32:34;;;;;;;6.87;5.72;;;;;;;17.32;69.08;99280.33;1729942;82;21149;-76
2022/06/13 01:35:37;;;;;;;9.23;6.67;;;;;;;17.31;68.77;99281.27;1730154;82;21354;-76
2022/06/13 01:38:38;;;;;;;11.28;7.12;;;;;;;17.27;68.67;99282.45;1729854;82;21121;-75
2022/06/13 01:41:16;;;;;;;7.85;7.05;;;;;;;17.20;69.33;99286.47;1730877;82;21462;-76
2022/06/13 01:44:15;;;;;;;9.80;7.47;;;;;;;17.15;69.56;99280.12;1730277;82;21097;-75
2022/06/13 01:47:14;;;;;;;13.18;9.03;;;;;;;17.14;70.01;99278.41;1686237;82;21043;-76
2022/06/13 01:49:52;;;;;;;12.63;10.23;;;;;;;17.11;69.97;99281.73;1703281;82;21906;-76
2022/06/13 01:52:48;;;;;;;15.25;9.70;;;;;;;17.08;70.47;99283.66;1702204;82;21014;-75
2022/06/13 01:56:02;;;;;;;19.02;11.70;;;;;;;17.06;70.79;99284.23;1695020;84;21129;-75
2022/06/13 01:58:58;;;;;;;23.12;15.95;;;;;;;17.03;70.73;99288.88;1682816;84;21138;-75
2022/06/13 02:01:45;;;;;;;18.87;12.10;;;;;;;17.00;71.15;99280.64;1695917;84;20978;-75
2022/06/13 02:04:22;;;;;;;18.12;12.23;;;;;;;16.99;70.89;99285.56;1695789;84;21600;-75
2022/06/13 02:07:12;;;;;;;21.95;13.10;;;;;;;16.96;70.68;99279.11;1696123;84;21085;-75
2022/06/13 02:09:44;;;;;;;15.18;10.28;;;;;;;16.94;70.74;99277.53;1695677;84;21122;-75
2022/06/13 02:12:10;;;;;;;16.55;11.48;;;;;;;16.90;70.77;99284.84;1695152;84;21135;-75
2022/06/13 02:14:50;;;;;;;14.75;10.03;;;;;;;16.85;71.19;99279.82;1695695;84;21003;-75
2022/06/13 02:17:19;;;;;;;13.65;10.35;;;;;;;16.85;71.35;99285.63;1670523;84;21130;-75
2022/06/13 02:19:55;;;;;;;16.37;10.28;;;;;;;16.87;71.45;99285.04;1651148;84;21541;-74
2022/06/13 02:22:48;;;;;;;17.20;9.48;;;;;;;16.86;71.34;99288.19;1651354;85;21087;-75
2022/06/13 02:25:45;;;;;;;10.80;8.28;;;;;;;16.87;71.60;99286.37;1656307;86;21070;-75
2022/06/13 02:28:39;;;;;;;11.00;7.95;;;;;;;16.89;71.92;99287.11;1656528;86;21140;-75
2022/06/13 02:31:13;;;;;;;13.22;8.48;;;;;;;16.90;71.88;99286.17;1652621;86;21152;-75
2022/06/13 02:33:58;;;;;;;20.72;9.20;;;;;;;16.93;72.15;99279.34;1651143;85;21066;-74
2022/06/13 02:36:56;;;;;;;10.90;8.55;;;;;;;16.98;72.22;99281.67;1651178;85;21109;-75
2022/06/13 02:39:43;;;;;;;13.13;8.93;;;;;;;16.99;72.61;99289.55;1651289;86;21114;-75
2022/06/13 02:42:15;;;;;;;13.28;9.93;;;;;;;17.02;72.50;99287.19;1651069;86;21050;-75
2022/06/13 02:44:47;;;;;;;15.32;8.90;;;;;;;17.04;72.73;99288.77;1651063;86;21681;-74
2022/06/13 02:47:31;;;;;;;13.85;7.90;;;;;;;17.09;72.86;99284.01;1651205;85;21510;-74
2022/06/13 02:50:12;;;;;;;14.03;8.03;;;;;;;17.12;72.84;99286.12;1650581;86;21077;-75
2022/06/13 02:52:54;;;;;;;13.78;8.18;;;;;;;17.19;73.03;99290.07;1651118;85;21168;-75
2022/06/13 02:55:21;;;;;;;12.50;7.67;;;;;;;17.24;72.75;99291.46;1651309;86;21609;-74
2022/06/13 02:58:04;;;;;;;12.13;8.30;;;;;;;17.29;72.55;99288.51;1651057;85;22288;-75
2022/06/13 03:01:01;;;;;;;12.73;7.92;;;;;;;17.35;72.15;99292.10;1650790;86;21083;-74
2022/06/13 03:03:45;;;;;;;14.00;7.65;;;;;;;17.42;72.04;99291.22;1651160;86;21607;-75
2022/06/13 03:06:38;;;;;;;10.95;6.65;;;;;;;17.50;71.84;99290.69;1651185;86;21150;-75
2022/06/13 03:09:15;;;;;;;11.12;6.95;;;;;;;17.56;72.76;99300.92;1655836;85;22091;-75
2022/06/13 03:12:02;;;;;;;13.13;6.50;;;;;;;17.61;73.30;99294.33;1657536;86;21121;-75
2022/06/13 03:14:41;;;;;;;11.33;6.25;;;;;;;17.67;73.58;99293.09;1657662;86;21522;-76
2022/06/13 03:17:48;;;;;;;17.35;6.70;;;;;;;17.76;73.79;99303.58;1657960;86;21094;-75
2022/06/13 03:20:26;;;;;;;13.80;6.70;;;;;;;17.81;74.01;99302.30;1657797;86;21592;-75
2022/06/13 03:23:01;;;;;;;11.35;6.97;;;;;;;17.89;74.19;99302.31;1643366;86;21011;-75
2022/06/13 03:25:57;;;;;;;10.80;6.17;;;;;;;17.96;74.33;99299.59;1652823;86;22405;-76
2022/06/13 03:28:40;;;;;;;16.70;6.72;;;;;;;18.00;74.65;99297.08;1658495;85;21019;-75
2022/06/13 03:31:29;;;;;;;9.33;6.10;;;;;;;18.05;75.23;99298.94;1657560;86;21497;-75
2022/06/13 03:34:00;;;;;;;17.20;6.30;;;;;;;18.09;75.54;99296.91;1632494;86;21118;-75
2022/06/13 03:36:36;;;;;;;8.50;6.03;;;;;;;18.15;75.52;99297.83;1657733;86;21129;-76
2022/06/13 03:39:11;;;;;;;8.68;5.70;;;;;;;18.23;75.45;99302.64;1657936;86;21522;-75
2022/06/13 03:41:50;;;;;;;9.10;5.62;;;;;;;18.32;75.15;99304.64;1657483;85;21110;-76
2022/06/13 03:44:21;;;;;;;7.78;6.40;;;;;;;18.38;74.85;99299.73;1657786;86;21046;-75
2022/06/13 03:46:55;;;;;;;8.15;5.25;;;;;;;18.49;74.64;99301.66;1657726;86;21612;-76
2022/06/13 03:49:42;;;;;;;8.95;5.12;;;;;;;18.54;74.17;99300.84;1691235;84;21077;-75
2022/06/13 03:52:11;;;;;;;8.43;5.30;;;;;;;18.62;73.84;99296.28;1693067;84;22124;-76
2022/06/13 03:54:53;;;;;;;6.45;4.87;;;;;;;18.69;73.68;99299.37;1692549;84;21018;-75
2022/06/13 03:57:37;;;;;;;7.50;4.83;;;;;;;18.74;73.39;99300.76;1691325;84;22325;-76
2022/06/13 04:00:24;;;;;;;7.28;4.53;;;;;;;18.79;73.31;99300.41;1693211;84;21545;-75
2022/06/13 04:02:50;;;;;;;4.60;4.17;;;;;;;18.85;73.08;99305.33;1687247;84;21094;-76
2022/06/13 04:05:37;;;;;;;5.42;4.70;;;;;;;18.94;72.86;99305.14;1692759;84;21133;-75
2022/06/13 04:08:04;;;;;;;7.72;5.20;;;;;;;19.03;73.20;99310.28;1689606;84;21232;-76
2022/06/13 04:10:42;;;;;;;5.67;4.60;;;;;;;19.11;73.17;99311.45;1637157;86;21599;-76
2022/06/13 04:13:18;;;;;;;6.53;4.87;;;;;;;19.18;72.79;99319.84;1652933;86;21155;-75
2022/06/13 04:15:58;;;;;;;8.25;4.53;;;;;;;19.29;73.23;99325.71;1661916;85;21135;-76
2022/06/13 04:18:47;;;;;;;7.95;4.87;;;;;;;19.39;73.15;99320.55;1662100;86;21251;-74
2022/06/13 04:21:50;;;;;;;7.70;5.25;;;;;;;19.51;73.21;99320.13;1661663;85;21055;-75
2022/06/13 04:24:41;;;;;;;5.42;4.75;;;;;;;19.59;72.87;99318.57;1661468;86;21127;-76
2022/06/13 04:27:19;;;;;;;6.58;5.40;;;;;;;19.71;72.57;99323.95;1662233;85;21594;-76
2022/06/13 04:29:56;;;;;;;5.45;4.30;;;;;;;19.81;72.33;99320.50;1661715;85;21028;-75
2022/06/13 04:32:34;;;;;;;4.72;4.25;;;;;;;19.89;71.86;99323.05;1662054;85;21552;-75
2022/06/13 04:35:01;;;;;;;5.90;4.20;;;;;;;19.95;71.13;99318.09;1661320;86;21581;-75
2022/06/13 04:37:27;;;;;;;4.62;4.28;;;;;;;20.01;70.77;99317.63;1661832;86;22104;-75
2022/06/13 04:39:58;;;;;;;6.20;4.30;;;;;;;20.08;70.73;99324.69;1661905;86;21080;-75
2022/06/13 04:42:25;;;;;;;4.30;3.90;;;;;;;20.16;70.49;99320.94;1661979;84;21064;-75
2022/06/13 04:44:52;;;;;;;5.83;4.08;;;;;;;20.24;70.28;99319.02;1662336;86;21129;-76
2022/06/13 04:47:18;;;;;;;6.95;4.15;;;;;;;20.31;69.82;99320.23;1661958;86;21112;-76
2022/06/13 04:49:57;;;;;;;5.12;4.00;;;;;;;20.39;69.50;99319.16;1661941;86;21063;-76
2022/06/13 04:52:28;;;;;;;9.15;4.15;;;;;;;20.48;69.68;99316.73;1662197;86;21170;-76
2022/06/13 04:55:18;;;;;;;9.80;3.92;;;;;;;20.58;69.29;99313.69;1662307;86;21041;-76
2022/06/13 04:57:44;;;;;;;8.70;4.00;;;;;;;20.68;68.79;99313.81;1662199;86;21113;-76
2022/06/13 05:00:12;;;;;;;5.72;3.75;;;;;;;20.76;68.18;99309.58;1662230;86;21087;-77
2022/06/13 05:02:45;;;;;;;4.17;3.77;;;;;;;20.82;67.70;99310.06;1662542;86;21088;-77
2022/06/13 05:05:40;;;;;;;7.47;3.90;;;;;;;20.88;67.45;99309.55;1662061;86;21115;-76
2022/06/13 05:08:22;;;;;;;4.35;3.90;;;;;;;20.97;67.11;99312.33;1662697;84;21170;-76
2022/06/13 05:10:49;;;;;;;8.48;4.33;;;;;;;21.06;66.71;99319.25;1692950;84;21795;-76
2022/06/13 05:13:17;;;;;;;4.95;4.35;;;;;;;21.14;66.35;99320.31;1658865;84;21158;-76
2022/06/13 05:15:48;;;;;;;5.25;3.95;;;;;;;21.23;66.12;99320.53;1692885;84;21083;-76
2022/06/13 05:18:41;;;;;;;4.72;4.20;;;;;;;21.30;65.39;99327.08;1693233;84;21103;-76
2022/06/13 05:21:42;;;;;;;8.23;4.47;;;;;;;21.38;64.97;99321.94;1692903;84;21518;-76
2022/06/13 05:24:31;;;;;;;6.45;4.10;;;;;;;21.46;64.69;99316.80;1693062;84;21511;-76
2022/06/13 05:26:58;;;;;;;7.28;3.87;;;;;;;21.56;64.23;99321.44;1692742;84;21055;-76
2022/06/13 05:29:25;;;;;;;6.45;3.85;;;;;;;21.63;63.97;99317.27;1693111;84;21072;-77
2022/06/13 05:31:52;;;;;;;6.33;3.70;;;;;;;21.69;63.55;99324.80;1693076;84;21099;-76
2022/06/13 05:34:30;;;;;;;4.75;3.83;;;;;;;21.74;62.45;99325.25;1692964;84;21074;-77
2022/06/13 05:36:56;;;;;;;6.17;3.92;;;;;;;21.77;62.38;99331.70;1693209;84;21130;-75
2022/06/13 05:39:22;;;;;;;7.97;3.72;;;;;;;21.83;62.34;99323.13;1693019;84;21143;-76
2022/06/13 05:41:49;;;;;;;4.20;3.80;;;;;;;21.91;61.58;99329.69;1693059;84;21036;-76
2022/06/13 05:44:16;;;;;;;4.12;3.70;;;;;;;21.98;62.21;99325.49;1692919;84;21029;-76
2022/06/13 05:46:43;;;;;;;5.40;3.72;;;;;;;22.06;61.37;99329.70;1693175;84;21495;-77
2022/06/13 05:49:12;;;;;;;3.50;3.20;;;;;;;22.13;61.20;99334.05;1693208;84;21096;-76
2022/06/13 05:51:38;;;;;;;3.60;3.37;;;;;;;22.19;61.14;99333.04;1693110;84;21464;-76
2022/06/13 05:54:05;;;;;;;3.92;2.92;;;;;;;22.28;61.12;99331.89;1692938;84;21108;-76
2022/06/13 05:56:32;;;;;;;3.45;3.15;;;;;;;22.35;60.85;99333.08;1689583;84;21124;-77
2022/06/13 05:58:59;;;;;;;3.35;2.85;;;;;;;22.43;59.94;99331.42;1692900;84;21067;-76
2022/06/13 06:01:25;;;;;;;10.95;3.80;;;;;;;22.53;59.98;99330.14;1682550;84;21109;-77
2022/06/13 06:03:53;;;;;;;8.63;3.50;;;;;;;22.61;59.43;99331.66;1659399;86;22347;-76
2022/06/13 06:06:26;;;;;;;5.70;3.05;;;;;;;22.69;59.39;99330.13;1659499;86;21660;-77
2022/06/13 06:08:57;;;;;;;4.78;2.70;;;;;;;22.77;59.43;99328.45;1660464;86;21676;-77
2022/06/13 06:11:22;;;;;;;7.12;3.08;;;;;;;22.87;59.03;99320.45;1663985;85;21122;-77
2022/06/13 06:13:49;;;;;;;5.47;3.47;;;;;;;22.95;58.69;99324.64;1664465;86;21152;-76
2022/06/13 06:16:18;;;;;;;4.97;2.90;;;;;;;23.04;58.76;99326.15;1664361;86;21007;-77
2022/06/13 06:18:46;;;;;;;6.15;2.75;;;;;;;23.12;58.64;99323.66;1664399;86;21075;-76
2022/06/13 06:21:12;;;;;;;4.22;2.47;;;;;;;23.17;57.57;99327.61;1664623;86;21090;-77
2022/06/13 06:23:39;;;;;;;5.53;2.85;;;;;;;23.18;56.95;99328.45;1664455;86;21176;-77
2022/06/13 06:26:06;;;;;;;2.65;2.42;;;;;;;23.17;56.43;99326.27;1664545;86;21110;-76
2022/06/13 06:28:33;;;;;;;2.92;2.58;;;;;;;23.17;56.53;99326.27;1664135;86;21015;-77
2022/06/13 06:31:03;;;;;;;2.42;2.17;;;;;;;23.23;56.44;99322.17;1664660;86;21122;-77
2022/06/13 06:33:30;;;;;;;6.78;2.20;;;;;;;23.30;55.75;99319.78;1664238;86;21500;-77
2022/06/13 06:35:57;;;;;;;4.05;2.52;;;;;;;23.39;55.76;99318.12;1664663;86;21629;-76
2022/06/13 06:38:25;;;;;;;3.85;2.60;;;;;;;23.48;55.53;99319.44;1664609;86;21505;-77
2022/06/13 06:40:52;;;;;;;7.47;2.42;;;;;;;23.55;55.33;99323.75;1664367;86;22043;-77
2022/06/13 06:43:18;;;;;;;3.80;2.65;;;;;;;23.61;54.98;99323.70;1664663;86;21058;-77
2022/06/13 06:45:45;;;;;;;12.37;2.45;;;;;;;23.67;55.23;99321.30;1664666;86;21051;-76
2022/06/13 06:48:18;;;;;;;3.55;2.37;;;;;;;23.74;55.24;99321.08;1664574;86;21066;-76
2022/06/13 06:50:46;;;;;;;13.20;2.80;;;;;;;23.78;54.57;99324.83;1664575;86;21125;-77
2022/06/13 06:53:13;;;;;;;6.05;2.58;;;;;;;23.78;54.78;99320.30;1664552;86;21186;-78
2022/06/13 07:00:57;;;;;;;2.77;2.58;;;;;;;23.98;54.30;99317.13;1630251;86;21106;-77
2022/06/13 07:03:24;;;;;;;3.83;2.60;;;;;;;24.01;53.59;99310.12;1664370;86;21678;-76
2022/06/13 07:05:51;;;;;;;7.60;2.62;;;;;;;24.05;53.52;99318.23;1664490;86;21131;-77
2022/06/13 07:08:18;;;;;;;5.62;2.80;;;;;;;24.09;53.49;99318.31;1664593;86;21067;-76
2022/06/13 07:10:48;;;;;;;4.03;2.50;;;;;;;24.17;54.19;99318.07;1660254;86;21067;-77
2022/06/13 07:13:18;;;;;;;4.80;2.20;;;;;;;24.24;53.31;99320.52;1659447;86;21530;-76
2022/06/13 07:15:48;;;;;;;3.37;2.50;;;;;;;24.33;53.81;99316.98;1659375;86;21549;-76
2022/06/13 07:18:14;;;;;;;3.05;2.50;;;;;;;24.43;53.04;99317.78;1659705;86;21332;-77
2022/06/13 07:20:42;;;;;;;1.90;1.80;;;;;;;24.50;52.36;99301.91;1659556;86;21064;-76
2022/06/13 07:23:08;;;;;;;1.95;1.85;;;;;;;24.58;51.74;99306.56;1659557;86;21079;-76
2022/06/13 07:25:35;;;;;;;3.87;2.20;;;;;;;24.66;51.55;99309.36;1659680;86;21015;-77
2022/06/13 07:28:02;;;;;;;3.05;2.10;;;;;;;24.74;51.62;99305.43;1659403;86;21147;-76
2022/06/13 07:30:31;;;;;;;7.37;2.50;;;;;;;24.85;52.10;99304.41;1659323;86;21070;-76
2022/06/13 07:32:59;;;;;;;9.10;2.12;;;;;;;24.99;52.45;99310.61;1659475;86;21110;-76
2022/06/13 07:35:25;;;;;;;3.65;2.42;;;;;;;25.14;51.88;99310.94;1659491;86;21664;-76
2022/06/13 07:40:37;;;;;;;3.83;1.92;;;;;;;25.39;51.42;99309.89;1659672;86;21183;-76
2022/06/13 07:43:05;;;;;;;3.90;1.70;;;;;;;25.53;50.24;99310.69;1659062;86;21557;-76
2022/06/13 07:45:35;;;;;;;3.40;1.70;;;;;;;25.66;49.09;99306.26;1659295;86;21538;-76
2022/06/13 07:48:01;;;;;;;4.00;1.45;;;;;;;25.75;48.04;99309.86;1659201;86;21075;-76
2022/06/13 07:50:29;;;;;;;1.90;1.60;;;;;;;25.77;46.55;99303.81;1659340;86;21051;-76
2022/06/13 07:52:57;;;;;;;2.47;1.87;;;;;;;25.84;46.95;99302.20;1659493;86;21166;-76
2022/06/13 07:55:25;;;;;;;7.33;1.82;;;;;;;25.95;46.61;99303.82;1659475;86;21745;-76
2022/06/13 07:57:51;;;;;;;3.42;1.45;;;;;;;26.05;47.06;99303.73;1659565;86;21070;-76
2022/06/13 08:00:22;;;;;;;4.53;1.70;;;;;;;26.18;47.54;99301.45;1659200;86;21064;-76
2022/06/13 08:02:49;;;;;;;3.20;1.60;;;;;;;26.29;45.49;99298.50;1659517;86;21881;-76
2022/06/13 08:05:16;;;;;;;7.55;1.55;;;;;;;26.36;45.69;99295.14;1676727;84;21105;-75
2022/06/13 08:07:42;;;;;;;1.60;1.50;;;;;;;26.45;45.25;99297.73;1665026;86;20998;-77
2022/06/13 08:10:10;;;;;;;2.22;1.42;;;;;;;26.44;44.45;99292.49;1664735;86;21145;-76
2022/06/13 08:12:40;;;;;;;5.50;1.30;;;;;;;26.45;43.95;99291.50;1665019;86;21604;-76
2022/06/13 08:15:07;;;;;;;3.92;1.60;;;;;;;26.50;43.42;99295.39;1664873;86;21125;-77
2022/06/13 08:17:34;;;;;;;2.98;1.60;;;;;;;26.58;43.77;99290.55;1664984;85;21569;-76
2022/06/13 08:20:01;;;;;;;3.45;1.82;;;;;;;26.61;44.25;99291.58;1664836;86;21050;-77
2022/06/13 08:22:27;;;;;;;2.12;1.55;;;;;;;26.68;45.29;99287.25;1664828;86;21180;-76
2022/06/13 08:24:54;;;;;;;4.95;1.80;;;;;;;26.79;44.89;99282.56;1665149;86;21086;-76
2022/06/13 08:27:20;;;;;;;4.37;1.57;;;;;;;26.86;44.79;99283.11;1664802;86;21086;-76
2022/06/13 08:29:47;;;;;;;6.80;0.95;;;;;;;26.98;44.66;99276.90;1664958;86;21193;-77
2022/06/13 08:32:14;;;;;;;4.85;1.50;;;;;;;27.12;42.37;99278.59;1665441;86;21114;-77
2022/06/13 08:34:40;;;;;;;2.10;1.60;;;;;;;27.20;41.05;99279.95;1638467;86;21141;-77
2022/06/13 08:37:07;;;;;;;1.80;1.50;;;;;;;27.22;41.37;99281.50;1664934;86;21102;-77
2022/06/13 08:39:34;;;;;;;1.85;1.45;;;;;;;27.31;41.90;99281.55;1664952;86;21018;-77
2022/06/13 08:42:14;;;;;;;5.40;1.20;;;;;;;27.41;41.45;99274.95;1665277;86;21906;-77
2022/06/13 08:45:17;;;;;;;1.62;1.20;;;;;;;27.53;40.82;99280.88;1664927;86;21086;-77
2022/06/13 08:48:04;;;;;;;2.65;1.22;;;;;;;27.59;40.81;99282.08;1664893;85;21054;-77
2022/06/13 08:50:50;;;;;;;1.47;1.30;;;;;;;27.72;41.24;99270.73;1633453;84;21054;-77
2022/06/13 08:53:27;;;;;;;1.92;1.50;;;;;;;27.84;40.82;99269.40;1665297;86;21118;-77
2022/06/13 08:56:07;;;;;;;1.55;1.45;;;;;;;27.96;40.66;99272.11;1665181;86;21127;-76
2022/06/13 08:58:51;;;;;;;2.58;1.72;;;;;;;28.05;40.96;99270.75;1665104;86;21019;-76
2022/06/13 09:01:27;;;;;;;2.98;1.50;;;;;;;28.12;39.93;99272.57;1665171;86;21149;-77
2022/06/13 09:04:16;;;;;;;2.42;1.55;;;;;;;28.17;40.26;99260.72;1665067;86;21055;-76
2022/06/13 09:06:53;;;;;;;2.35;1.40;;;;;;;28.21;39.46;99254.97;1663784;86;21046;-77
2022/06/13 09:09:35;;;;;;;2.02;1.60;;;;;;;28.27;39.32;99265.11;1665013;86;21534;-76
2022/06/13 09:12:11;;;;;;;2.40;1.60;;;;;;;28.32;39.61;99260.02;1654001;84;22178;-75
2022/06/13 09:14:45;;;;;;;1.90;1.60;;;;;;;28.35;39.43;99258.33;1653671;86;34029;-76
2022/06/13 09:17:27;;;;;;;2.00;1.80;;;;;;;28.40;38.62;99261.34;1653614;86;21038;-76
2022/06/13 09:20:21;;;;;;;1.92;1.60;;;;;;;28.45;38.00;99246.78;1652696;86;21073;-77
2022/06/13 09:23:31;;;;;;;1.52;1.42;;;;;;;28.53;38.84;99252.69;1653333;86;21110;-76
2022/06/13 09:26:16;;;;;;;6.62;1.52;;;;;;;28.65;37.26;99254.01;1629516;86;21079;-76
2022/06/13 09:29:12;;;;;;;1.60;1.10;;;;;;;28.75;37.98;99256.50;1653559;86;21112;-77
2022/06/13 09:31:41;;;;;;;;;;;;;;;28.87;36.48;99251.53;1655965;86;21078;-77
2022/06/13 09:34:22;;;;;;;6.10;1.10;;;;;;;28.99;36.63;99242.49;1653863;84;20161;-78
2022/06/13 09:37:09;;;;;;;1.45;1.20;;;;;;;29.08;36.96;99251.75;1660802;86;21251;-78
2022/06/13 09:39:37;;;;;;;1.40;1.15;;;;;;;29.19;35.92;99251.86;1653814;86;21034;-77
2022/06/13 09:42:33;;;;;;;2.35;1.15;;;;;;;29.18;35.52;99252.88;1653905;86;21097;-78
2022/06/13 09:45:31;;;;;;;3.80;1.27;;;;;;;29.11;35.68;99253.23;1653625;86;21168;-77
2022/06/13 09:48:28;;;;;;;5.33;1.02;;;;;;;29.06;35.70;99259.70;1653567;86;21691;-77
2022/06/13 09:51:09;;;;;;;5.83;1.27;;;;;;;29.04;35.80;99254.98;1652359;86;21598;-76
2022/06/13 09:53:47;;;;;;;2.77;1.25;;;;;;;29.03;35.49;99254.64;1653837;86;21081;-77
2022/06/13 09:56:23;;;;;;;2.75;1.67;;;;;;;28.99;34.43;99246.55;1655155;86;21195;-77
2022/06/13 09:59:41;;;;;;;2.05;1.17;;;;;;;28.89;35.04;99242.20;1653805;86;21061;-77
2022/06/13 10:02:29;;;;;;;2.15;1.02;;;;;;;28.89;34.89;99242.20;1653863;86;21520;-76
2022/06/13 10:05:35;;;;;;;2.25;1.10;;;;;;;29.06;35.39;99253.77;1653784;86;21162;-77
2022/06/13 10:08:38;;;;;;;1.20;1.10;;;;;;;29.19;34.54;99238.84;1653602;86;21077;-77
2022/06/13 10:11:19;;;;;;;1.20;1.10;;;;;;;29.34;35.05;99241.61;1673892;84;21070;-77
2022/06/13 10:14:11;;;;;;;1.10;1.00;;;;;;;29.45;33.87;99235.73;1672338;85;21670;-77
2022/06/13 10:17:03;;;;;;;1.72;1.00;;;;;;;29.56;34.23;99235.84;1700446;84;21108;-77
2022/06/13 10:20:05;;;;;;;2.05;0.85;;;;;;;29.68;31.92;99239.78;1670721;85;21584;-76
2022/06/13 10:22:55;;;;;;;1.80;0.90;;;;;;;29.74;31.22;99234.99;1700504;84;21027;-77
2022/06/13 10:26:08;;;;;;;1.15;0.98;;;;;;;29.87;31.51;99234.37;1700078;84;21149;-77
2022/06/13 10:28:47;;;;;;;1.22;0.93;;;;;;;30.11;31.54;99231.94;1672046;85;21023;-77
2022/06/13 10:31:45;;;;;;;1.57;1.10;;;;;;;30.33;31.09;99219.81;1700056;84;21023;-77
2022/06/13 10:34:25;;;;;;;2.35;1.02;;;;;;;30.49;31.31;99220.14;1672079;85;21071;-77
2022/06/13 10:37:16;;;;;;;1.25;1.05;;;;;;;30.59;30.20;99216.61;1700138;84;21112;-77
2022/06/13 10:39:42;;;;;;;1.07;1.00;;;;;;;30.47;31.11;99216.78;1667677;85;21101;-77
2022/06/13 10:42:12;;;;;;;6.67;1.10;;;;;;;30.50;31.71;99217.77;1700644;84;21078;-76
2022/06/13 10:44:38;;;;;;;1.75;1.07;;;;;;;30.59;31.69;99216.61;1672512;85;21110;-77
2022/06/13 10:47:25;;;;;;;2.22;1.30;;;;;;;30.62;31.22;99216.23;1700205;84;21209;-76
2022/06/13 10:50:06;;;;;;;1.40;1.30;;;;;;;30.60;31.26;99219.66;1670947;85;21105;-77
2022/06/13 10:52:36;;;;;;;1.47;1.10;;;;;;;30.44;31.37;99217.98;1700238;84;21059;-77
2022/06/13 10:55:08;;;;;;;2.45;1.10;;;;;;;30.19;30.83;99210.63;1672557;85;21145;-76
2022/06/13 10:57:45;;;;;;;4.50;0.98;;;;;;;30.12;32.10;99210.53;1700067;84;21581;-76
2022/06/13 11:00:27;;;;;;;3.35;1.22;;;;;;;30.21;31.13;99200.42;1649359;85;21258;-77
2022/06/13 11:03:13;;;;;;;3.62;1.30;;;;;;;30.18;31.59;99206.25;1700174;84;21581;-76
2022/06/13 11:05:57;;;;;;;4.70;1.20;;;;;;;30.19;30.91;99197.92;1672378;85;21026;-77
2022/06/13 11:08:23;;;;;;;1.47;1.00;;;;;;;30.14;31.46;99206.28;1700304;84;21074;-77
2022/06/13 11:10:58;;;;;;;1.32;0.93;;;;;;;30.05;29.57;99195.21;1668570;85;21610;-76
2022/06/13 11:13:36;;;;;;;5.10;0.90;;;;;;;29.77;30.78;99208.03;1662940;86;21874;-76
2022/06/13 11:22:45;;;;;;;1.52;0.80;;;;;;;29.27;31.09;99201.68;1666163;85;21086;-76
2022/06/13 11:25:21;;;;;;;;;;;;;;;28.91;31.58;99208.17;1665568;86;21003;-77
2022/06/13 11:28:07;;;;;;;2.42;1.67;;;;;;;28.80;30.96;99208.56;1663231;86;21179;-76
2022/06/13 11:30:48;;;;;;;2.17;0.93;;;;;;;28.66;30.78;99197.47;1660674;86;21165;-76
2022/06/13 11:33:32;;;;;;;5.33;1.55;;;;;;;28.48;31.00;99199.08;1663108;86;21079;-76
2022/06/13 11:36:18;;;;;;;1.37;0.80;;;;;;;28.30;31.09;99195.78;1663021;86;21556;-77
2022/06/13 11:39:03;;;;;;;1.75;1.30;;;;;;;28.20;30.18;99200.55;1663178;86;21127;-77
2022/06/13 11:41:44;;;;;;;1.52;1.10;;;;;;;28.09;31.13;99207.17;1663186;86;21063;-77
2022/06/13 11:44:18;;;;;;;2.95;1.10;;;;;;;28.06;31.92;99194.85;1662952;86;21160;-76
2022/06/13 11:46:55;;;;;;;2.27;1.22;;;;;;;28.11;32.78;99191.60;1661512;86;21070;-77
2022/06/13 11:49:30;;;;;;;2.22;0.80;;;;;;;28.19;33.05;99190.74;1663060;86;21208;-77
2022/06/13 11:52:11;;;;;;;2.25;1.00;;;;;;;28.28;33.11;99183.78;1662561;85;21631;-77
2022/06/13 11:54:56;;;;;;;1.52;0.90;;;;;;;28.40;32.55;99182.88;1640242;85;21190;-76
2022/06/13 11:57:33;;;;;;;1.62;1.10;;;;;;;28.48;31.65;99177.43;1640301;86;21020;-77
2022/06/13 12:00:12;;;;;;;3.52;0.90;;;;;;;28.50;32.02;99178.09;1639679;87;21067;-77
2022/06/13 12:02:52;;;;;;;2.55;0.90;;;;;;;28.59;33.03;99172.66;1638825;87;21122;-77
2022/06/13 12:05:28;;;;;;;1.55;1.30;;;;;;;28.72;32.65;99177.82;1640009;86;21526;-77
2022/06/13 12:08:02;;;;;;;1.25;1.12;;;;;;;28.78;32.26;99168.16;1640206;86;21542;-75
2022/06/13 12:10:36;;;;;;;2.05;1.30;;;;;;;28.51;33.06;99172.16;1640002;86;20980;-76
2022/06/13 12:13:07;;;;;;;1.40;1.30;;;;;;;28.30;33.40;99172.78;1662652;86;21534;-76
2022/06/13 12:15:37;;;;;;;1.72;1.10;;;;;;;28.28;33.61;99165.36;1663230;86;21035;-76
2022/06/13 12:18:24;;;;;;;1.82;1.25;;;;;;;28.24;33.50;99167.55;1663837;86;21130;-77
2022/06/13 12:20:59;;;;;;;5.33;1.22;;;;;;;28.19;33.68;99163.69;1664392;85;21339;-77
2022/06/13 12:23:37;;;;;;;;;;;;;;;28.21;33.55;99164.35;1730296;83;21138;-76
2022/06/13 12:26:09;;;;;;;1.65;1.20;;;;;;;28.25;33.71;99158.42;1727530;83;20235;-76
2022/06/13 12:29:11;;;;;;;7.80;1.42;;;;;;;28.32;34.41;99153.16;1727491;83;21485;-77
2022/06/13 12:31:58;;;;;;;1.42;1.30;;;;;;;28.44;34.36;99158.49;1726263;83;21565;-77
2022/06/13 12:35:14;;;;;;;5.12;1.20;;;;;;;28.61;34.48;99151.67;1728001;83;21542;-76